sensor_id;sensor_type;location;lat;lon;timestamp;pressure;altitude;pressure_sealevel;temperature;humidity
69153;BME280;56261;51.580;4.578;2022-12-10T00:00:19;101027.22;;;-1.32;100.00
69153;BME280;56261;51.580;4.578;2022-12-10T00:02:44;101021.53;;;-1.24;100.00
69153;BME280;56261;51.580;4.578;2022-12-10T00:05:10;101033.50;;;-1.20;100.00
69153;BME280;56261;51.580;4.578;2022-12-10T00:07:35;101034.69;;;-1.26;100.00
69153;BME280;56261;51.580;4.578;2022-12-10T00:10:00;101038.19;;;-1.25;100.00
69153;BME280;56261;51.580;4.578;2022-12-10T00:12:26;101035.56;;;-1.25;100.00
69153;BME280;56261;51.580;4.578;2022-12-10T00:14:51;101036.63;;;-1.13;100.00
69153;BME280;56261;51.580;4.578;2022-12-10T00:17:17;101028.63;;;-1.26;100.00
69153;BME280;56261;51.580;4.578;2022-12-10T00:19:42;101037.78;;;-1.33;100.00
69153;BME280;56261;51.580;4.578;2022-12-10T00:22:08;101038.00;;;-1.22;100.00
69153;BME280;56261;51.580;4.578;2022-12-10T00:24:33;101040.25;;;-1.16;100.00
69153;BME280;56261;51.580;4.578;2022-12-10T00:26:58;101047.34;;;-1.18;100.00
69153;BME280;56261;51.580;4.578;2022-12-10T00:29:24;101045.03;;;-1.08;100.00
69153;BME280;56261;51.580;4.578;2022-12-10T00:31:49;101047.84;;;-1.11;100.00
69153;BME280;56261;51.580;4.578;2022-12-10T00:34:15;101037.19;;;-1.08;100.00
69153;BME280;56261;51.580;4.578;2022-12-10T00:36:45;101037.94;;;-1.06;100.00
69153;BME280;56261;51.580;4.578;2022-12-10T00:39:13;101044.06;;;-1.21;100.00
69153;BME280;56261;51.580;4.578;2022-12-10T00:41:39;101026.53;;;-1.05;100.00
69153;BME280;56261;51.580;4.578;2022-12-10T00:44:05;101037.50;;;-1.29;100.00
69153;BME280;56261;51.580;4.578;2022-12-10T00:46:31;101041.25;;;-1.18;100.00
69153;BME280;56261;51.580;4.578;2022-12-10T00:48:57;101037.44;;;-1.13;100.00
69153;BME280;56261;51.580;4.578;2022-12-10T00:51:25;101048.00;;;-1.14;100.00
69153;BME280;56261;51.580;4.578;2022-12-10T00:53:52;101033.53;;;-1.06;100.00
69153;BME280;56261;51.580;4.578;2022-12-10T00:56:20;101033.59;;;-0.91;100.00
69153;BME280;56261;51.580;4.578;2022-12-10T00:58:47;101038.69;;;-0.90;100.00
69153;BME280;56261;51.580;4.578;2022-12-10T01:03:46;101028.56;;;-1.10;100.00
69153;BME280;56261;51.580;4.578;2022-12-10T01:06:24;101027.25;;;-1.17;100.00
69153;BME280;56261;51.580;4.578;2022-12-10T01:08:51;101036.34;;;-1.09;100.00
69153;BME280;56261;51.580;4.578;2022-12-10T01:11:18;101035.50;;;-1.09;100.00
69153;BME280;56261;51.580;4.578;2022-12-10T01:13:45;101032.50;;;-1.17;100.00
69153;BME280;56261;51.580;4.578;2022-12-10T01:16:13;101024.59;;;-1.32;100.00
69153;BME280;56261;51.580;4.578;2022-12-10T01:18:39;101032.03;;;-1.10;100.00
69153;BME280;56261;51.580;4.578;2022-12-10T01:21:07;101039.66;;;-1.21;100.00
69153;BME280;56261;51.580;4.578;2022-12-10T01:23:35;101054.03;;;-1.28;100.00
69153;BME280;56261;51.580;4.578;2022-12-10T01:26:15;101042.44;;;-1.38;100.00
69153;BME280;56261;51.580;4.578;2022-12-10T01:28:42;101042.84;;;-1.46;100.00
69153;BME280;56261;51.580;4.578;2022-12-10T01:31:13;101048.84;;;-1.44;100.00
69153;BME280;56261;51.580;4.578;2022-12-10T01:33:39;101046.91;;;-1.40;100.00
69153;BME280;56261;51.580;4.578;2022-12-10T01:36:13;101057.16;;;-1.21;100.00
69153;BME280;56261;51.580;4.578;2022-12-10T01:38:39;101055.13;;;-1.32;100.00
69153;BME280;56261;51.580;4.578;2022-12-10T01:41:06;101054.13;;;-1.30;100.00
69153;BME280;56261;51.580;4.578;2022-12-10T01:43:55;101062.84;;;-1.29;100.00
69153;BME280;56261;51.580;4.578;2022-12-10T01:46:22;101059.19;;;-1.27;100.00
69153;BME280;56261;51.580;4.578;2022-12-10T01:48:49;101064.09;;;-1.36;100.00
69153;BME280;56261;51.580;4.578;2022-12-10T01:51:15;101066.84;;;-1.23;100.00
69153;BME280;56261;51.580;4.578;2022-12-10T01:53:42;101072.34;;;-1.28;100.00
69153;BME280;56261;51.580;4.578;2022-12-10T01:56:10;101071.44;;;-1.27;100.00
69153;BME280;56261;51.580;4.578;2022-12-10T01:58:35;101072.13;;;-1.39;100.00
69153;BME280;56261;51.580;4.578;2022-12-10T02:03:41;101070.84;;;-1.32;100.00
69153;BME280;56261;51.580;4.578;2022-12-10T02:06:38;101071.31;;;-1.26;100.00
69153;BME280;56261;51.580;4.578;2022-12-10T02:09:23;101082.28;;;-1.19;100.00
69153;BME280;56261;51.580;4.578;2022-12-10T02:11:55;101091.22;;;-1.07;100.00
69153;BME280;56261;51.580;4.578;2022-12-10T02:14:41;101082.69;;;-1.11;100.00
69153;BME280;56261;51.580;4.578;2022-12-10T02:17:15;101077.66;;;-1.30;100.00
69153;BME280;56261;51.580;4.578;2022-12-10T02:19:59;101085.78;;;-1.34;100.00
69153;BME280;56261;51.580;4.578;2022-12-10T02:22:31;101085.97;;;-1.37;100.00
69153;BME280;56261;51.580;4.578;2022-12-10T02:24:57;101089.06;;;-1.31;100.00
69153;BME280;56261;51.580;4.578;2022-12-10T02:27:26;101072.97;;;-1.39;100.00
69153;BME280;56261;51.580;4.578;2022-12-10T02:29:54;101073.31;;;-1.45;100.00
69153;BME280;56261;51.580;4.578;2022-12-10T02:32:24;101075.91;;;-1.29;100.00
69153;BME280;56261;51.580;4.578;2022-12-10T02:34:53;101074.22;;;-1.30;100.00
69153;BME280;56261;51.580;4.578;2022-12-10T02:37:30;101078.53;;;-1.29;100.00
69153;BME280;56261;51.580;4.578;2022-12-10T02:39:59;101089.31;;;-1.19;100.00
69153;BME280;56261;51.580;4.578;2022-12-10T02:42:28;101088.31;;;-1.33;100.00
69153;BME280;56261;51.580;4.578;2022-12-10T02:44:56;101090.44;;;-1.39;100.00
69153;BME280;56261;51.580;4.578;2022-12-10T02:47:22;101086.41;;;-1.45;100.00
69153;BME280;56261;51.580;4.578;2022-12-10T02:49:51;101081.50;;;-1.35;100.00
69153;BME280;56261;51.580;4.578;2022-12-10T02:52:19;101076.66;;;-1.43;100.00
69153;BME280;56261;51.580;4.578;2022-12-10T02:54:47;101084.88;;;-1.33;100.00
69153;BME280;56261;51.580;4.578;2022-12-10T03:00:16;101082.09;;;-1.46;100.00
69153;BME280;56261;51.580;4.578;2022-12-10T03:05:54;101071.56;;;-1.44;100.00
69153;BME280;56261;51.580;4.578;2022-12-10T03:08:25;101084.28;;;-1.54;100.00
69153;BME280;56261;51.580;4.578;2022-12-10T03:10:58;101070.53;;;-1.42;100.00
69153;BME280;56261;51.580;4.578;2022-12-10T03:13:37;101068.78;;;-1.57;100.00
69153;BME280;56261;51.580;4.578;2022-12-10T03:16:04;101064.97;;;-1.52;100.00
69153;BME280;56261;51.580;4.578;2022-12-10T03:18:31;101067.16;;;-1.44;100.00
69153;BME280;56261;51.580;4.578;2022-12-10T03:21:03;101073.91;;;-1.40;100.00
69153;BME280;56261;51.580;4.578;2022-12-10T03:23:29;101062.50;;;-1.39;100.00
69153;BME280;56261;51.580;4.578;2022-12-10T03:25:58;101063.97;;;-1.49;100.00
69153;BME280;56261;51.580;4.578;2022-12-10T03:28:25;101057.03;;;-1.50;100.00
69153;BME280;56261;51.580;4.578;2022-12-10T03:30:51;101068.00;;;-1.43;100.00
69153;BME280;56261;51.580;4.578;2022-12-10T03:33:17;101065.38;;;-1.43;100.00
69153;BME280;56261;51.580;4.578;2022-12-10T03:35:44;101060.06;;;-1.42;100.00
69153;BME280;56261;51.580;4.578;2022-12-10T03:38:10;101058.72;;;-1.49;100.00
69153;BME280;56261;51.580;4.578;2022-12-10T03:40:36;101062.41;;;-1.37;100.00
69153;BME280;56261;51.580;4.578;2022-12-10T03:43:02;101068.28;;;-1.64;100.00
69153;BME280;56261;51.580;4.578;2022-12-10T03:45:27;101072.66;;;-1.64;100.00
69153;BME280;56261;51.580;4.578;2022-12-10T03:47:53;101067.69;;;-1.53;100.00
69153;BME280;56261;51.580;4.578;2022-12-10T03:50:18;101072.47;;;-1.46;100.00
69153;BME280;56261;51.580;4.578;2022-12-10T03:52:44;101064.47;;;-1.42;100.00
69153;BME280;56261;51.580;4.578;2022-12-10T03:55:09;101066.34;;;-1.30;100.00
69153;BME280;56261;51.580;4.578;2022-12-10T03:57:35;101060.56;;;-1.35;100.00
69153;BME280;56261;51.580;4.578;2022-12-10T04:00:01;101058.84;;;-1.36;100.00
69153;BME280;56261;51.580;4.578;2022-12-10T04:02:26;101063.50;;;-1.41;100.00
69153;BME280;56261;51.580;4.578;2022-12-10T04:04:52;101062.19;;;-1.64;100.00
69153;BME280;56261;51.580;4.578;2022-12-10T04:07:17;101068.94;;;-1.60;100.00
69153;BME280;56261;51.580;4.578;2022-12-10T04:09:42;101070.88;;;-1.64;100.00
69153;BME280;56261;51.580;4.578;2022-12-10T04:12:08;101066.25;;;-1.75;100.00
69153;BME280;56261;51.580;4.578;2022-12-10T04:14:35;101074.44;;;-1.49;100.00
69153;BME280;56261;51.580;4.578;2022-12-10T04:17:19;101078.06;;;-1.52;100.00
69153;BME280;56261;51.580;4.578;2022-12-10T04:19:44;101079.13;;;-1.40;100.00
69153;BME280;56261;51.580;4.578;2022-12-10T04:22:10;101072.47;;;-1.46;100.00
69153;BME280;56261;51.580;4.578;2022-12-10T04:24:54;101057.63;;;-1.45;100.00
69153;BME280;56261;51.580;4.578;2022-12-10T04:27:39;101074.06;;;-1.43;100.00
69153;BME280;56261;51.580;4.578;2022-12-10T04:30:09;101067.47;;;-1.34;100.00
69153;BME280;56261;51.580;4.578;2022-12-10T04:32:35;101088.91;;;-1.43;100.00
69153;BME280;56261;51.580;4.578;2022-12-10T04:35:04;101069.69;;;-1.42;100.00
69153;BME280;56261;51.580;4.578;2022-12-10T04:37:29;101081.50;;;-1.35;100.00
69153;BME280;56261;51.580;4.578;2022-12-10T04:39:55;101085.28;;;-1.25;100.00
69153;BME280;56261;51.580;4.578;2022-12-10T04:42:21;101073.09;;;-1.26;100.00
69153;BME280;56261;51.580;4.578;2022-12-10T04:44:47;101077.34;;;-1.39;100.00
69153;BME280;56261;51.580;4.578;2022-12-10T04:47:14;101071.09;;;-1.37;100.00
69153;BME280;56261;51.580;4.578;2022-12-10T04:49:39;101075.91;;;-1.29;100.00
69153;BME280;56261;51.580;4.578;2022-12-10T04:52:06;101081.44;;;-1.19;100.00
69153;BME280;56261;51.580;4.578;2022-12-10T04:54:32;101076.50;;;-1.40;100.00
69153;BME280;56261;51.580;4.578;2022-12-10T04:56:58;101081.22;;;-1.31;100.00
69153;BME280;56261;51.580;4.578;2022-12-10T04:59:23;101078.00;;;-1.20;100.00
69153;BME280;56261;51.580;4.578;2022-12-10T05:01:48;101086.94;;;-1.24;100.00
69153;BME280;56261;51.580;4.578;2022-12-10T05:04:16;101091.13;;;-1.36;100.00
69153;BME280;56261;51.580;4.578;2022-12-10T05:06:42;101092.25;;;-1.26;100.00
69153;BME280;56261;51.580;4.578;2022-12-10T05:09:09;101090.03;;;-1.32;100.00
69153;BME280;56261;51.580;4.578;2022-12-10T05:11:35;101090.31;;;-1.22;100.00
69153;BME280;56261;51.580;4.578;2022-12-10T05:14:00;101090.50;;;-1.25;100.00
69153;BME280;56261;51.580;4.578;2022-12-10T05:16:28;101087.41;;;-1.32;100.00
69153;BME280;56261;51.580;4.578;2022-12-10T05:18:54;101084.94;;;-1.35;100.00
69153;BME280;56261;51.580;4.578;2022-12-10T05:21:21;101094.22;;;-1.29;100.00
69153;BME280;56261;51.580;4.578;2022-12-10T05:23:50;101090.41;;;-1.23;100.00
69153;BME280;56261;51.580;4.578;2022-12-10T05:26:19;101091.25;;;-1.23;100.00
69153;BME280;56261;51.580;4.578;2022-12-10T05:28:53;101082.06;;;-1.30;100.00
69153;BME280;56261;51.580;4.578;2022-12-10T05:31:29;101091.22;;;-1.53;100.00
69153;BME280;56261;51.580;4.578;2022-12-10T05:33:55;101081.81;;;-1.41;100.00
69153;BME280;56261;51.580;4.578;2022-12-10T05:36:24;101089.16;;;-1.32;100.00
69153;BME280;56261;51.580;4.578;2022-12-10T05:38:50;101080.47;;;-1.33;100.00
69153;BME280;56261;51.580;4.578;2022-12-10T05:41:18;101088.22;;;-1.31;100.00
69153;BME280;56261;51.580;4.578;2022-12-10T05:43:44;101087.28;;;-1.30;100.00
69153;BME280;56261;51.580;4.578;2022-12-10T05:46:13;101080.13;;;-1.27;100.00
69153;BME280;56261;51.580;4.578;2022-12-10T05:48:39;101075.53;;;-1.23;100.00
69153;BME280;56261;51.580;4.578;2022-12-10T05:51:10;101090.44;;;-1.39;100.00
69153;BME280;56261;51.580;4.578;2022-12-10T05:53:36;101095.09;;;-1.44;100.00
69153;BME280;56261;51.580;4.578;2022-12-10T05:56:06;101090.78;;;-1.46;100.00
69153;BME280;56261;51.580;4.578;2022-12-10T05:58:34;101087.75;;;-1.38;100.00
69153;BME280;56261;51.580;4.578;2022-12-10T06:00:59;101097.16;;;-1.19;100.00
69153;BME280;56261;51.580;4.578;2022-12-10T06:03:27;101100.03;;;-1.24;100.00
69153;BME280;56261;51.580;4.578;2022-12-10T06:05:53;101106.78;;;-1.20;100.00
69153;BME280;56261;51.580;4.578;2022-12-10T06:08:19;101098.09;;;-1.36;100.00
69153;BME280;56261;51.580;4.578;2022-12-10T06:10:44;101094.31;;;-1.31;100.00
69153;BME280;56261;51.580;4.578;2022-12-10T06:13:09;101105.25;;;-1.24;100.00
69153;BME280;56261;51.580;4.578;2022-12-10T06:15:39;101107.13;;;-1.26;100.00
69153;BME280;56261;51.580;4.578;2022-12-10T06:18:04;101083.41;;;-1.39;100.00
69153;BME280;56261;51.580;4.578;2022-12-10T06:20:30;101095.63;;;-1.23;100.00
69153;BME280;56261;51.580;4.578;2022-12-10T06:22:55;101104.53;;;-1.12;100.00
69153;BME280;56261;51.580;4.578;2022-12-10T06:25:21;101093.66;;;-1.04;100.00
69153;BME280;56261;51.580;4.578;2022-12-10T06:27:47;101096.19;;;-1.02;100.00
69153;BME280;56261;51.580;4.578;2022-12-10T06:30:12;101098.13;;;-1.06;100.00
69153;BME280;56261;51.580;4.578;2022-12-10T06:32:37;101102.13;;;-1.15;100.00
69153;BME280;56261;51.580;4.578;2022-12-10T06:35:03;101109.06;;;-1.14;100.00
69153;BME280;56261;51.580;4.578;2022-12-10T06:37:29;101111.31;;;-1.08;100.00
69153;BME280;56261;51.580;4.578;2022-12-10T06:39:54;101098.25;;;-1.23;100.00
69153;BME280;56261;51.580;4.578;2022-12-10T06:42:20;101105.94;;;-1.36;100.00
69153;BME280;56261;51.580;4.578;2022-12-10T06:44:46;101103.59;;;-1.41;100.00
69153;BME280;56261;51.580;4.578;2022-12-10T06:47:12;101108.56;;;-1.36;100.00
69153;BME280;56261;51.580;4.578;2022-12-10T06:49:38;101112.41;;;-1.58;100.00
69153;BME280;56261;51.580;4.578;2022-12-10T06:52:03;101109.44;;;-1.52;100.00
69153;BME280;56261;51.580;4.578;2022-12-10T06:54:29;101118.97;;;-1.51;100.00
69153;BME280;56261;51.580;4.578;2022-12-10T06:56:55;101116.50;;;-1.38;100.00
69153;BME280;56261;51.580;4.578;2022-12-10T06:59:21;101122.00;;;-1.42;100.00
69153;BME280;56261;51.580;4.578;2022-12-10T07:01:46;101127.78;;;-1.21;100.00
69153;BME280;56261;51.580;4.578;2022-12-10T07:04:11;101125.88;;;-1.34;100.00
69153;BME280;56261;51.580;4.578;2022-12-10T07:06:37;101118.63;;;-1.44;100.00
69153;BME280;56261;51.580;4.578;2022-12-10T07:09:02;101124.03;;;-1.32;100.00
69153;BME280;56261;51.580;4.578;2022-12-10T07:11:28;101119.88;;;-1.36;100.00
69153;BME280;56261;51.580;4.578;2022-12-10T07:13:55;101132.47;;;-1.42;100.00
69153;BME280;56261;51.580;4.578;2022-12-10T07:16:29;101136.69;;;-1.40;100.00
69153;BME280;56261;51.580;4.578;2022-12-10T07:18:56;101132.28;;;-1.23;100.00
69153;BME280;56261;51.580;4.578;2022-12-10T07:21:31;101144.78;;;-1.29;100.00
69153;BME280;56261;51.580;4.578;2022-12-10T07:24:00;101144.19;;;-1.34;100.00
69153;BME280;56261;51.580;4.578;2022-12-10T07:26:28;101150.59;;;-1.39;100.00
69153;BME280;56261;51.580;4.578;2022-12-10T07:28:54;101149.25;;;-1.47;100.00
69153;BME280;56261;51.580;4.578;2022-12-10T07:31:20;101150.25;;;-1.33;100.00
69153;BME280;56261;51.580;4.578;2022-12-10T07:33:46;101160.78;;;-1.19;100.00
69153;BME280;56261;51.580;4.578;2022-12-10T07:36:12;101147.13;;;-1.24;100.00
69153;BME280;56261;51.580;4.578;2022-12-10T07:38:39;101142.09;;;-1.27;100.00
69153;BME280;56261;51.580;4.578;2022-12-10T07:41:07;101148.31;;;-1.30;100.00
69153;BME280;56261;51.580;4.578;2022-12-10T07:43:35;101154.47;;;-1.31;100.00
69153;BME280;56261;51.580;4.578;2022-12-10T07:46:10;101159.00;;;-1.18;100.00
69153;BME280;56261;51.580;4.578;2022-12-10T07:48:37;101162.41;;;-1.32;100.00
69153;BME280;56261;51.580;4.578;2022-12-10T07:51:03;101155.00;;;-1.40;100.00
69153;BME280;56261;51.580;4.578;2022-12-10T07:53:30;101161.56;;;-1.33;100.00
69153;BME280;56261;51.580;4.578;2022-12-10T07:55:55;101164.34;;;-1.20;100.00
69153;BME280;56261;51.580;4.578;2022-12-10T07:58:21;101155.16;;;-1.43;100.00
69153;BME280;56261;51.580;4.578;2022-12-10T08:00:46;101166.28;;;-1.23;100.00
69153;BME280;56261;51.580;4.578;2022-12-10T08:03:11;101171.63;;;-1.25;100.00
69153;BME280;56261;51.580;4.578;2022-12-10T08:05:37;101164.78;;;-1.43;100.00
69153;BME280;56261;51.580;4.578;2022-12-10T08:08:03;101170.09;;;-1.45;100.00
69153;BME280;56261;51.580;4.578;2022-12-10T08:10:28;101169.09;;;-1.42;100.00
69153;BME280;56261;51.580;4.578;2022-12-10T08:12:53;101174.72;;;-1.34;100.00
69153;BME280;56261;51.580;4.578;2022-12-10T08:15:19;101164.34;;;-1.20;100.00
69153;BME280;56261;51.580;4.578;2022-12-10T08:17:44;101171.94;;;-1.15;100.00
69153;BME280;56261;51.580;4.578;2022-12-10T08:20:10;101180.72;;;-1.16;100.00
69153;BME280;56261;51.580;4.578;2022-12-10T08:22:35;101183.16;;;-1.13;100.00
69153;BME280;56261;51.580;4.578;2022-12-10T08:25:01;101186.88;;;-1.17;100.00
69153;BME280;56261;51.580;4.578;2022-12-10T08:27:27;101194.22;;;-1.24;100.00
69153;BME280;56261;51.580;4.578;2022-12-10T08:29:53;101199.13;;;-1.18;100.00
69153;BME280;56261;51.580;4.578;2022-12-10T08:32:18;101194.91;;;-1.20;100.00
69153;BME280;56261;51.580;4.578;2022-12-10T08:34:44;101196.16;;;-1.28;100.00
69153;BME280;56261;51.580;4.578;2022-12-10T08:37:09;101203.16;;;-1.28;100.00
69153;BME280;56261;51.580;4.578;2022-12-10T08:39:35;101198.63;;;-1.24;100.00
69153;BME280;56261;51.580;4.578;2022-12-10T08:42:00;101205.47;;;-1.22;100.00
69153;BME280;56261;51.580;4.578;2022-12-10T08:44:25;101199.03;;;-1.32;100.00
69153;BME280;56261;51.580;4.578;2022-12-10T08:46:51;101204.00;;;-1.43;100.00
69153;BME280;56261;51.580;4.578;2022-12-10T08:49:16;101204.00;;;-1.28;100.00
69153;BME280;56261;51.580;4.578;2022-12-10T08:51:42;101204.19;;;-1.31;100.00
69153;BME280;56261;51.580;4.578;2022-12-10T08:54:07;101210.34;;;-1.16;100.00
69153;BME280;56261;51.580;4.578;2022-12-10T08:56:33;101198.88;;;-1.29;100.00
69153;BME280;56261;51.580;4.578;2022-12-10T08:58:58;101212.81;;;-1.29;100.00
69153;BME280;56261;51.580;4.578;2022-12-10T09:01:24;101208.66;;;-1.17;100.00
69153;BME280;56261;51.580;4.578;2022-12-10T09:03:50;101214.84;;;-1.18;100.00
69153;BME280;56261;51.580;4.578;2022-12-10T09:06:18;101195.66;;;-1.18;100.00
69153;BME280;56261;51.580;4.578;2022-12-10T09:08:44;101214.47;;;-1.12;100.00
69153;BME280;56261;51.580;4.578;2022-12-10T09:11:23;101206.47;;;-1.09;100.00
69153;BME280;56261;51.580;4.578;2022-12-10T09:13:49;101200.78;;;-1.01;100.00
69153;BME280;56261;51.580;4.578;2022-12-10T09:16:15;101204.44;;;-1.03;100.00
69153;BME280;56261;51.580;4.578;2022-12-10T09:18:41;101205.03;;;-1.14;100.00
69153;BME280;56261;51.580;4.578;2022-12-10T09:21:08;101202.06;;;-1.08;100.00
69153;BME280;56261;51.580;4.578;2022-12-10T09:23:34;101207.38;;;-1.10;100.00
69153;BME280;56261;51.580;4.578;2022-12-10T09:25:59;101211.50;;;-0.90;100.00
69153;BME280;56261;51.580;4.578;2022-12-10T09:28:25;101219.09;;;-0.85;100.00
69153;BME280;56261;51.580;4.578;2022-12-10T09:31:00;101220.19;;;-0.73;100.00
69153;BME280;56261;51.580;4.578;2022-12-10T09:33:27;101224.56;;;-0.74;100.00
69153;BME280;56261;51.580;4.578;2022-12-10T09:35:53;101230.25;;;-0.81;100.00
69153;BME280;56261;51.580;4.578;2022-12-10T09:38:19;101240.16;;;-0.87;100.00
69153;BME280;56261;51.580;4.578;2022-12-10T09:43:38;101233.66;;;-0.95;100.00
69153;BME280;56261;51.580;4.578;2022-12-10T09:46:21;101224.09;;;-1.12;100.00
69153;BME280;56261;51.580;4.578;2022-12-10T09:51:27;101232.94;;;-0.83;100.00
69153;BME280;56261;51.580;4.578;2022-12-10T09:53:55;101231.34;;;-0.86;100.00
69153;BME280;56261;51.580;4.578;2022-12-10T09:56:28;101224.69;;;-0.91;100.00
69153;BME280;56261;51.580;4.578;2022-12-10T09:58:56;101230.94;;;-0.78;100.00
69153;BME280;56261;51.580;4.578;2022-12-10T10:01:25;101233.19;;;-0.88;100.00
69153;BME280;56261;51.580;4.578;2022-12-10T10:03:52;101229.81;;;-0.90;100.00
69153;BME280;56261;51.580;4.578;2022-12-10T10:06:20;101250.94;;;-0.77;100.00
69153;BME280;56261;51.580;4.578;2022-12-10T10:08:48;101236.56;;;-0.86;100.00
69153;BME280;56261;51.580;4.578;2022-12-10T10:11:22;101240.41;;;-0.91;100.00
69153;BME280;56261;51.580;4.578;2022-12-10T10:14:14;101248.59;;;-0.97;100.00
69153;BME280;56261;51.580;4.578;2022-12-10T10:16:47;101242.66;;;-0.85;100.00
69153;BME280;56261;51.580;4.578;2022-12-10T10:19:28;101241.41;;;-0.78;100.00
69153;BME280;56261;51.580;4.578;2022-12-10T10:21:54;101239.88;;;-0.82;100.00
69153;BME280;56261;51.580;4.578;2022-12-10T10:24:22;101251.38;;;-0.85;100.00
69153;BME280;56261;51.580;4.578;2022-12-10T10:26:51;101256.75;;;-0.88;100.00
69153;BME280;56261;51.580;4.578;2022-12-10T10:29:20;101258.19;;;-0.66;100.00
69153;BME280;56261;51.580;4.578;2022-12-10T10:31:47;101253.28;;;-0.72;100.00
69153;BME280;56261;51.580;4.578;2022-12-10T10:34:18;101251.50;;;-0.72;100.00
69153;BME280;56261;51.580;4.578;2022-12-10T10:36:44;101259.72;;;-0.78;100.00
69153;BME280;56261;51.580;4.578;2022-12-10T10:39:31;101248.63;;;-0.67;100.00
69153;BME280;56261;51.580;4.578;2022-12-10T10:41:58;101253.13;;;-0.69;100.00
69153;BME280;56261;51.580;4.578;2022-12-10T10:44:27;101251.00;;;-0.63;100.00
69153;BME280;56261;51.580;4.578;2022-12-10T10:46:54;101242.44;;;-0.50;100.00
69153;BME280;56261;51.580;4.578;2022-12-10T10:49:32;101244.88;;;-0.47;100.00
69153;BME280;56261;51.580;4.578;2022-12-10T10:52:12;101251.66;;;-0.59;100.00
69153;BME280;56261;51.580;4.578;2022-12-10T10:54:39;101249.53;;;-0.52;100.00
69153;BME280;56261;51.580;4.578;2022-12-10T10:59:48;101249.19;;;-0.46;100.00
69153;BME280;56261;51.580;4.578;2022-12-10T11:02:30;101252.88;;;-0.65;100.00
69153;BME280;56261;51.580;4.578;2022-12-10T11:05:05;101249.22;;;-0.62;100.00
69153;BME280;56261;51.580;4.578;2022-12-10T11:07:41;101248.13;;;-0.58;100.00
69153;BME280;56261;51.580;4.578;2022-12-10T11:10:22;101256.28;;;-0.48;100.00
69153;BME280;56261;51.580;4.578;2022-12-10T11:13:02;101247.94;;;-0.55;100.00
69153;BME280;56261;51.580;4.578;2022-12-10T11:15:38;101254.50;;;-0.48;100.00
69153;BME280;56261;51.580;4.578;2022-12-10T11:21:04;101241.75;;;-0.24;100.00
69153;BME280;56261;51.580;4.578;2022-12-10T11:23:36;101239.28;;;-0.41;100.00
69153;BME280;56261;51.580;4.578;2022-12-10T11:44:53;101229.13;;;-0.17;100.00
69153;BME280;56261;51.580;4.578;2022-12-10T11:58:34;101224.53;;;-0.28;100.00
69153;BME280;56261;51.580;4.578;2022-12-10T12:09:15;101229.69;;;-0.12;100.00
69153;BME280;56261;51.580;4.578;2022-12-10T12:14:44;101236.25;;;-0.19;100.00
69153;BME280;56261;51.580;4.578;2022-12-10T12:17:19;101221.91;;;-0.28;100.00
69153;BME280;56261;51.580;4.578;2022-12-10T12:20:23;101230.66;;;-0.13;100.00
69153;BME280;56261;51.580;4.578;2022-12-10T12:22:56;101231.69;;;-0.01;100.00
69153;BME280;56261;51.580;4.578;2022-12-10T12:25:29;101229.00;;;0.01;100.00
69153;BME280;56261;51.580;4.578;2022-12-10T12:28:06;101224.38;;;-0.10;100.00
69153;BME280;56261;51.580;4.578;2022-12-10T12:30:37;101228.22;;;-0.02;100.00
69153;BME280;56261;51.580;4.578;2022-12-10T12:33:29;101237.31;;;0.07;100.00
69153;BME280;56261;51.580;4.578;2022-12-10T12:36:02;101219.63;;;-0.04;100.00
69153;BME280;56261;51.580;4.578;2022-12-10T12:38:32;101228.78;;;0.04;100.00
69153;BME280;56261;51.580;4.578;2022-12-10T12:41:05;101217.28;;;0.06;100.00
69153;BME280;56261;51.580;4.578;2022-12-10T12:46:01;101217.28;;;0.35;100.00
69153;BME280;56261;51.580;4.578;2022-12-10T12:48:52;101228.81;;;0.18;100.00
69153;BME280;56261;51.580;4.578;2022-12-10T12:51:28;101225.22;;;-0.10;100.00
69153;BME280;56261;51.580;4.578;2022-12-10T12:53:55;101227.75;;;0.06;100.00
69153;BME280;56261;51.580;4.578;2022-12-10T13:01:55;101230.78;;;0.14;100.00
69153;BME280;56261;51.580;4.578;2022-12-10T13:04:22;101233.88;;;0.21;100.00
69153;BME280;56261;51.580;4.578;2022-12-10T13:13:06;101240.63;;;0.25;100.00
69153;BME280;56261;51.580;4.578;2022-12-10T13:15:39;101252.50;;;0.31;100.00
69153;BME280;56261;51.580;4.578;2022-12-10T13:18:33;101242.41;;;0.25;100.00
69153;BME280;56261;51.580;4.578;2022-12-10T13:23:51;101245.38;;;0.33;100.00
69153;BME280;56261;51.580;4.578;2022-12-10T13:26:29;101236.75;;;0.31;100.00
69153;BME280;56261;51.580;4.578;2022-12-10T13:29:11;101232.56;;;0.43;100.00
69153;BME280;56261;51.580;4.578;2022-12-10T13:31:37;101239.84;;;0.37;100.00
69153;BME280;56261;51.580;4.578;2022-12-10T13:34:05;101239.47;;;0.44;100.00
69153;BME280;56261;51.580;4.578;2022-12-10T13:36:37;101245.22;;;0.36;100.00
69153;BME280;56261;51.580;4.578;2022-12-10T13:39:34;101251.75;;;0.57;100.00
69153;BME280;56261;51.580;4.578;2022-12-10T13:45:00;101258.88;;;0.41;100.00
69153;BME280;56261;51.580;4.578;2022-12-10T13:47:46;101252.69;;;0.28;100.00
69153;BME280;56261;51.580;4.578;2022-12-10T13:50:35;101251.00;;;0.27;100.00
69153;BME280;56261;51.580;4.578;2022-12-10T13:55:55;101258.41;;;0.49;100.00
69153;BME280;56261;51.580;4.578;2022-12-10T14:01:33;101260.97;;;0.36;100.00
69153;BME280;56261;51.580;4.578;2022-12-10T14:04:41;101259.63;;;0.43;100.00
69153;BME280;56261;51.580;4.578;2022-12-10T14:07:14;101254.28;;;0.45;100.00
69153;BME280;56261;51.580;4.578;2022-12-10T14:09:53;101261.69;;;0.52;100.00
69153;BME280;56261;51.580;4.578;2022-12-10T14:12:29;101250.44;;;0.50;100.00
69153;BME280;56261;51.580;4.578;2022-12-10T14:15:03;101264.53;;;0.49;100.00
69153;BME280;56261;51.580;4.578;2022-12-10T14:17:38;101268.06;;;0.48;100.00
69153;BME280;56261;51.580;4.578;2022-12-10T14:20:07;101257.38;;;0.51;100.00